Mount Vernon, Ohio
Current Conditions -  °F | °C
As of 8:56 PM on Saturday 25 Oct 2014 (Local Time) from K4I3 Reporting Station
Clear Clear  
Wind Chill: 61°   Ceiling: Unl
Heat Index: 61°   Visibility: 10mi
Dew Point: 39°   Wind: 13mph
Humidity: 45%   Direction: 270°W
Pressure: 29.84"   Gusts: NA
Location:  40.39°N, 82.48°W
Report Text: K4I3 260056Z AUTO 27011KT 10SM CLR 16/04 A2984 RMK AO2
Loading
Personal Weather Stations






























Interactive Weather Map
Tropical Storm Tracking
New forecast layout! Learn more

10-Day Weather Forecast

Advertisements
Track Severe Weather on mobile